Time;durP1;ratioP1;P1;durP2;ratioP2;P2;SDS_P1;SDS_P2;PMS_P1;PMS_P2;Temp;Humidity;BMP_temperature;BMP_pressure;BME280_temperature;BME280_humidity;BME280_pressure;Samples;Min_cycle;Max_cycle;Signal;HPM_P1;HPM_P2
2021/04/16 00:01:55;;;;;;;28.58;13.18;;;1.30;99.90;;;;;;4445508;28;657410;-69
2021/04/16 00:04:42;;;;;;;20.50;9.50;;;1.30;99.90;;;;;;4435371;28;657414;-69
2021/04/16 00:07:30;;;;;;;26.70;12.07;;;1.30;99.90;;;;;;4424158;28;657222;-69
2021/04/16 00:10:35;;;;;;;28.43;12.83;;;1.30;99.90;;;;;;4412712;28;657388;-69
2021/04/16 00:13:23;;;;;;;27.27;12.50;;;1.30;99.90;;;;;;4410630;28;657730;-69
2021/04/16 00:16:11;;;;;;;29.47;13.17;;;1.20;99.90;;;;;;4438154;28;658648;-69
2021/04/16 00:18:59;;;;;;;34.97;15.43;;;1.30;99.90;;;;;;4420117;28;658451;-69
2021/04/16 00:21:46;;;;;;;32.83;14.97;;;1.20;99.90;;;;;;4436494;28;657900;-69
2021/04/16 00:24:34;;;;;;;32.13;15.53;;;1.20;99.90;;;;;;4419232;28;657635;-69
2021/04/16 00:27:21;;;;;;;32.83;15.77;;;1.20;99.90;;;;;;4450410;28;656894;-69
2021/04/16 00:30:09;;;;;;;29.33;14.20;;;1.20;99.90;;;;;;4411609;28;657988;-69
2021/04/16 00:32:56;;;;;;;30.90;15.02;;;1.20;99.90;;;;;;4432111;28;658086;-69
2021/04/16 00:35:44;;;;;;;33.73;14.67;;;1.20;99.90;;;;;;4416286;28;657538;-69
2021/04/16 00:38:31;;;;;;;31.97;15.50;;;1.30;99.90;;;;;;4440158;28;657947;-69
2021/04/16 00:41:21;;;;;;;36.63;16.90;;;1.20;99.90;;;;;;4416957;28;658211;-69
2021/04/16 00:44:08;;;;;;;38.70;17.53;;;1.20;99.90;;;;;;4405241;28;657960;-69
2021/04/16 00:46:57;;;;;;;49.43;17.93;;;1.20;99.90;;;;;;4443756;28;657380;-69
2021/04/16 00:49:45;;;;;;;44.70;15.17;;;1.20;99.90;;;;;;4415313;28;658008;-69
2021/04/16 00:52:33;;;;;;;48.77;18.47;;;1.20;99.90;;;;;;4416713;28;657453;-69
2021/04/16 00:55:20;;;;;;;46.30;19.10;;;1.20;99.90;;;;;;4433987;28;658949;-70
2021/04/16 00:58:08;;;;;;;43.00;17.10;;;1.20;99.90;;;;;;4434769;28;657807;-69
2021/04/16 01:00:56;;;;;;;55.92;19.42;;;1.20;99.90;;;;;;4438946;28;659203;-69
2021/04/16 01:03:43;;;;;;;47.03;16.60;;;1.10;99.90;;;;;;4421860;28;657244;-69
2021/04/16 01:06:31;;;;;;;49.33;19.47;;;1.20;99.90;;;;;;4441158;28;658170;-69
2021/04/16 01:09:18;;;;;;;50.77;19.10;;;1.20;99.90;;;;;;4426277;28;657926;-69
2021/04/16 01:12:06;;;;;;;48.07;17.83;;;1.20;99.90;;;;;;4434591;28;658323;-69
2021/04/16 01:15:01;;;;;;;45.58;18.55;;;1.20;99.90;;;;;;4428610;28;657674;-69
2021/04/16 01:17:49;;;;;;;61.50;18.37;;;1.30;99.90;;;;;;4396682;28;658283;-69
2021/04/16 01:20:37;;;;;;;54.37;18.97;;;1.20;99.90;;;;;;4448274;28;657943;-69
2021/04/16 01:23:29;;;;;;;66.70;19.77;;;1.20;99.90;;;;;;4418296;28;658274;-69
2021/04/16 01:26:18;;;;;;;54.03;16.87;;;1.20;99.90;;;;;;4423510;28;658301;-69
2021/04/16 01:29:06;;;;;;;52.70;16.63;;;1.20;99.90;;;;;;4422075;28;658186;-69
2021/04/16 01:31:53;;;;;;;59.33;19.73;;;1.20;99.90;;;;;;4427755;28;658069;-69
2021/04/16 01:34:40;;;;;;;56.67;17.33;;;1.20;99.90;;;;;;4445688;28;658800;-69
2021/04/16 01:37:28;;;;;;;88.07;20.85;;;1.20;99.90;;;;;;4421159;28;657692;-69
2021/04/16 01:40:15;;;;;;;83.17;18.73;;;1.20;99.90;;;;;;4438264;28;658154;-69
2021/04/16 01:43:19;;;;;;;79.43;18.43;;;1.20;99.90;;;;;;4426008;28;657717;-69
2021/04/16 01:46:07;;;;;;;60.67;18.33;;;1.20;99.90;;;;;;4424084;28;657424;-69
2021/04/16 01:48:55;;;;;;;64.70;17.53;;;1.20;99.90;;;;;;4425958;28;658067;-69
2021/04/16 01:51:42;;;;;;;83.00;16.73;;;1.10;99.90;;;;;;4423337;28;657767;-69
2021/04/16 01:54:31;;;;;;;70.10;17.80;;;1.20;99.90;;;;;;4446841;28;658611;-69
2021/04/16 01:57:19;;;;;;;58.80;17.57;;;1.10;99.90;;;;;;4425832;28;657458;-69
2021/04/16 02:00:10;;;;;;;61.87;17.43;;;1.10;99.90;;;;;;4445793;28;658158;-69
2021/04/16 02:02:57;;;;;;;68.67;17.77;;;1.10;99.90;;;;;;4414957;28;657931;-69
2021/04/16 02:05:45;;;;;;;83.63;18.67;;;1.10;99.90;;;;;;4448814;28;657350;-69
2021/04/16 02:08:32;;;;;;;58.70;16.63;;;1.10;99.90;;;;;;4444739;28;657743;-69
2021/04/16 02:11:19;;;;;;;95.23;18.60;;;1.10;99.90;;;;;;4444104;28;658546;-69
2021/04/16 02:14:07;;;;;;;71.93;17.73;;;1.10;99.90;;;;;;4442789;28;657103;-69
2021/04/16 02:16:56;;;;;;;86.87;17.93;;;1.10;99.90;;;;;;4428864;28;658046;-69
2021/04/16 02:19:44;;;;;;;70.03;17.83;;;1.10;99.90;;;;;;4424853;28;658041;-69
2021/04/16 02:22:31;;;;;;;42.73;12.03;;;1.10;99.90;;;;;;4441161;28;658169;-69
2021/04/16 02:25:18;;;;;;;49.30;16.77;;;1.10;99.90;;;;;;4426871;28;657971;-69
2021/04/16 02:28:06;;;;;;;50.13;16.10;;;1.10;99.90;;;;;;4442246;28;658086;-69
2021/04/16 02:30:53;;;;;;;40.47;15.27;;;1.10;99.90;;;;;;4420872;28;658413;-69
2021/04/16 02:33:42;;;;;;;43.20;16.13;;;1.00;99.90;;;;;;4449193;28;658254;-69
2021/04/16 02:36:29;;;;;;;44.37;16.33;;;1.00;99.90;;;;;;4417707;28;658654;-69
2021/04/16 02:39:16;;;;;;;45.63;16.90;;;1.00;99.90;;;;;;4444035;28;657658;-69
2021/04/16 02:42:04;;;;;;;49.23;15.63;;;1.00;99.90;;;;;;4411537;28;657500;-69
2021/04/16 02:44:51;;;;;;;38.97;15.43;;;1.00;99.90;;;;;;4446514;28;657698;-69
2021/04/16 02:47:39;;;;;;;40.87;14.60;;;1.10;99.90;;;;;;4414325;28;657662;-69
2021/04/16 02:50:29;;;;;;;33.17;13.43;;;1.00;99.90;;;;;;4444309;28;658583;-69
2021/04/16 02:53:16;;;;;;;38.63;14.52;;;1.00;99.90;;;;;;4416901;28;658293;-69
2021/04/16 02:56:03;;;;;;;38.43;14.13;;;1.00;99.90;;;;;;4424100;28;657788;-69
2021/04/16 02:58:51;;;;;;;30.63;12.23;;;1.00;99.90;;;;;;4438062;28;658286;-69
2021/04/16 03:01:38;;;;;;;31.23;12.47;;;1.00;99.90;;;;;;4426073;28;657587;-69
2021/04/16 03:04:25;;;;;;;32.50;10.63;;;1.00;99.90;;;;;;4440784;28;658955;-69
2021/04/16 03:07:13;;;;;;;23.00;9.63;;;1.00;99.90;;;;;;4426177;28;657534;-69
2021/04/16 03:10:01;;;;;;;29.57;12.17;;;0.90;99.90;;;;;;4446950;28;657521;-69
2021/04/16 03:12:48;;;;;;;30.17;12.53;;;0.90;99.90;;;;;;4427426;28;657472;-69
2021/04/16 03:15:35;;;;;;;132.63;14.77;;;0.90;99.90;;;;;;4444083;28;658495;-69
2021/04/16 03:18:23;;;;;;;29.37;11.30;;;0.90;99.90;;;;;;4416754;28;660144;-69
2021/04/16 03:21:10;;;;;;;33.10;11.03;;;0.90;99.90;;;;;;4443645;28;658735;-69
2021/04/16 03:23:58;;;;;;;34.33;12.33;;;0.90;99.90;;;;;;4432915;28;657459;-69
2021/04/16 03:26:45;;;;;;;27.73;12.23;;;0.80;99.90;;;;;;4440974;28;658163;-69
2021/04/16 03:29:33;;;;;;;23.93;10.53;;;0.90;99.90;;;;;;4426863;28;657584;-69
2021/04/16 03:32:20;;;;;;;25.63;11.30;;;0.90;99.90;;;;;;4450551;28;658786;-69
2021/04/16 03:35:09;;;;;;;33.03;12.33;;;0.90;99.90;;;;;;4434457;28;657705;-69
2021/04/16 03:37:56;;;;;;;26.50;12.10;;;0.80;99.90;;;;;;4438549;28;658527;-69
2021/04/16 03:40:44;;;;;;;25.43;10.83;;;0.80;99.90;;;;;;4428039;28;657231;-69
2021/04/16 03:43:31;;;;;;;32.92;12.13;;;0.90;99.90;;;;;;4438731;28;657752;-69
2021/04/16 03:46:18;;;;;;;32.23;13.70;;;0.80;99.90;;;;;;4424685;28;657625;-69
2021/04/16 03:49:06;;;;;;;34.00;13.30;;;0.80;99.90;;;;;;4446377;28;658227;-69
2021/04/16 03:51:53;;;;;;;31.23;12.27;;;0.80;99.90;;;;;;4425443;28;657425;-69
2021/04/16 03:54:42;;;;;;;42.10;12.27;;;0.80;99.90;;;;;;4444966;28;658089;-69
2021/04/16 03:57:30;;;;;;;29.50;12.70;;;0.80;99.90;;;;;;4428237;28;658348;-69
2021/04/16 04:00:20;;;;;;;42.20;13.75;;;0.80;99.90;;;;;;4433701;28;658000;-69
2021/04/16 04:03:08;;;;;;;50.90;14.20;;;0.90;99.90;;;;;;4429302;28;657632;-69
2021/04/16 04:05:56;;;;;;;33.00;13.37;;;0.90;99.90;;;;;;4446323;28;657930;-69
2021/04/16 04:08:43;;;;;;;27.83;9.53;;;0.80;99.90;;;;;;4430620;28;658162;-69
2021/04/16 04:11:30;;;;;;;53.37;14.57;;;0.80;99.90;;;;;;4448384;28;657303;-69
2021/04/16 04:14:19;;;;;;;41.67;10.82;;;0.80;99.90;;;;;;4426455;28;657433;-69
2021/04/16 04:17:06;;;;;;;40.10;14.73;;;0.80;99.90;;;;;;4448434;28;657475;-69
2021/04/16 04:19:53;;;;;;;53.17;15.00;;;0.70;99.90;;;;;;4428287;28;657942;-69
2021/04/16 04:22:41;;;;;;;44.90;15.30;;;0.70;99.90;;;;;;4452132;28;658581;-69
2021/04/16 04:25:29;;;;;;;26.30;11.80;;;0.70;99.90;;;;;;4422447;28;657735;-69
2021/04/16 04:28:18;;;;;;;29.27;13.25;;;0.70;99.90;;;;;;4449124;28;657373;-69
2021/04/16 04:31:07;;;;;;;27.67;12.73;;;0.70;99.90;;;;;;4419513;28;658217;-69
2021/04/16 04:33:54;;;;;;;28.45;11.35;;;0.80;99.90;;;;;;4427936;28;658778;-69
2021/04/16 04:36:42;;;;;;;23.10;10.93;;;0.80;99.90;;;;;;4434703;28;658359;-69
2021/04/16 04:39:30;;;;;;;27.67;13.13;;;0.80;99.90;;;;;;4416503;28;658102;-69
2021/04/16 04:42:18;;;;;;;32.55;13.57;;;0.80;99.90;;;;;;4423317;28;657772;-69
2021/04/16 04:45:06;;;;;;;26.77;12.93;;;0.80;99.90;;;;;;4439041;28;658282;-69
2021/04/16 04:47:55;;;;;;;29.70;13.30;;;0.80;99.90;;;;;;4428773;28;657750;-69
2021/04/16 04:50:42;;;;;;;29.57;13.57;;;0.80;99.90;;;;;;4443648;28;657258;-69
2021/04/16 04:53:29;;;;;;;30.20;13.07;;;0.80;99.90;;;;;;4418118;28;658433;-69
2021/04/16 04:56:17;;;;;;;27.20;13.67;;;0.80;99.90;;;;;;4440807;28;657275;-69
2021/04/16 04:59:04;;;;;;;30.17;13.20;;;0.80;99.90;;;;;;4422341;28;658482;-69
2021/04/16 05:01:52;;;;;;;23.27;10.37;;;0.90;99.90;;;;;;4447871;28;657849;-69
2021/04/16 05:04:40;;;;;;;27.73;12.93;;;0.80;99.90;;;;;;4415112;28;658752;-69
2021/04/16 05:07:27;;;;;;;27.77;12.67;;;0.80;99.90;;;;;;4440825;28;657547;-69
2021/04/16 05:10:15;;;;;;;28.00;12.63;;;0.90;99.90;;;;;;4445270;28;658301;-69
2021/04/16 05:13:02;;;;;;;29.57;12.17;;;0.90;99.90;;;;;;4440718;28;658041;-69
2021/04/16 05:15:51;;;;;;;24.93;10.43;;;0.90;99.90;;;;;;4448533;28;658784;-70
2021/04/16 05:18:38;;;;;;;26.37;12.47;;;0.90;99.90;;;;;;4429005;28;657438;-69
2021/04/16 05:21:28;;;;;;;30.63;13.03;;;0.90;99.90;;;;;;4438694;28;658408;-69
2021/04/16 05:24:15;;;;;;;24.20;11.00;;;0.90;99.90;;;;;;4423735;28;658762;-69
2021/04/16 05:27:04;;;;;;;23.40;10.77;;;0.90;99.90;;;;;;4435958;28;657535;-69
2021/04/16 05:29:53;;;;;;;27.23;11.10;;;0.90;99.90;;;;;;4443854;28;657001;-69
2021/04/16 05:32:41;;;;;;;26.10;11.97;;;0.90;99.90;;;;;;4418360;28;658520;-69
2021/04/16 05:35:28;;;;;;;27.73;11.67;;;0.90;99.90;;;;;;4421147;28;657968;-69
2021/04/16 05:38:16;;;;;;;24.20;10.30;;;0.90;99.90;;;;;;4435056;28;658046;-69
2021/04/16 05:41:03;;;;;;;28.00;12.30;;;0.90;99.90;;;;;;4418549;28;657244;-69
2021/04/16 05:44:16;;;;;;;14.80;7.35;;;0.90;99.90;;;;;;4441043;28;658319;-69
2021/04/16 05:47:32;;;;;;;22.90;10.87;;;0.90;99.90;;;;;;4402835;28;656697;-69
2021/04/16 05:50:19;;;;;;;22.50;11.80;;;0.90;99.90;;;;;;4426461;28;657877;-69
2021/04/16 05:53:06;;;;;;;25.60;12.70;;;0.90;99.90;;;;;;4440240;28;657480;-69
2021/04/16 05:55:55;;;;;;;28.57;12.97;;;0.90;99.90;;;;;;4426347;28;658183;-69
2021/04/16 05:58:42;;;;;;;26.05;12.40;;;0.90;99.90;;;;;;4434084;28;657580;-69
2021/04/16 06:01:31;;;;;;;24.60;12.27;;;1.00;99.90;;;;;;4445567;28;658249;-69
2021/04/16 06:04:24;;;;;;;25.60;10.47;;;0.90;99.90;;;;;;4424754;28;657604;-69
2021/04/16 06:07:40;;;;;;;23.90;12.03;;;0.90;99.90;;;;;;4416607;28;658173;-69
2021/04/16 06:13:51;;;;;;;24.30;10.93;;;1.00;99.90;;;;;;4420704;28;658348;-70
2021/04/16 06:16:39;;;;;;;24.07;11.17;;;1.00;99.90;;;;;;4417996;28;658064;-69
2021/04/16 06:19:26;;;;;;;23.43;10.20;;;1.00;99.90;;;;;;4442586;28;656987;-70
2021/04/16 06:22:14;;;;;;;16.53;6.90;;;1.00;99.90;;;;;;4428908;28;658246;-70
2021/04/16 06:25:33;;;;;;;27.50;12.47;;;1.00;99.90;;;;;;4448482;28;656383;-70
2021/04/16 06:28:28;;;;;;;21.93;10.50;;;1.10;99.90;;;;;;4390679;28;657780;-70
2021/04/16 06:31:17;;;;;;;24.60;10.93;;;1.10;99.90;;;;;;4421376;28;658006;-70
2021/04/16 06:34:06;;;;;;;21.95;10.93;;;1.10;99.90;;;;;;4425070;28;658378;-70
2021/04/16 06:36:54;;;;;;;21.48;11.20;;;1.20;99.90;;;;;;4426845;28;657691;-70
2021/04/16 06:39:41;;;;;;;20.90;10.07;;;1.20;99.90;;;;;;4440352;28;658354;-69
2021/04/16 06:42:29;;;;;;;27.83;13.17;;;1.30;99.90;;;;;;4425523;28;657699;-69
2021/04/16 06:45:19;;;;;;;21.53;11.63;;;1.30;99.90;;;;;;4445808;28;657725;-69
2021/04/16 06:48:08;;;;;;;29.87;12.90;;;1.30;99.90;;;;;;4419217;28;657876;-69
2021/04/16 06:50:58;;;;;;;27.73;12.70;;;1.30;99.90;;;;;;4416664;28;657609;-70
2021/04/16 06:53:49;;;;;;;26.03;11.87;;;1.30;99.90;;;;;;4423876;28;658485;-69
2021/04/16 06:56:43;;;;;;;23.67;11.30;;;1.30;99.90;;;;;;4440507;28;658439;-69
2021/04/16 06:59:32;;;;;;;23.67;11.17;;;1.30;99.90;;;;;;4425836;28;658118;-69
2021/04/16 07:02:20;;;;;;;28.43;13.67;;;1.30;99.90;;;;;;4426186;28;658323;-69
2021/04/16 07:05:12;;;;;;;27.83;13.52;;;1.30;99.90;;;;;;4413991;28;657561;-70
2021/04/16 07:08:00;;;;;;;29.07;14.07;;;1.30;99.90;;;;;;4403242;28;658281;-70
2021/04/16 07:10:48;;;;;;;28.70;13.80;;;1.30;99.90;;;;;;4420050;28;657563;-69
2021/04/16 07:13:37;;;;;;;28.50;13.27;;;1.30;99.90;;;;;;4424716;28;658688;-69
2021/04/16 07:16:24;;;;;;;33.10;16.17;;;1.30;99.90;;;;;;4406642;28;658814;-69
2021/04/16 07:19:23;;;;;;;30.87;14.43;;;1.30;99.90;;;;;;4429537;28;657920;-69
2021/04/16 07:22:18;;;;;;;31.20;14.10;;;1.30;99.90;;;;;;4398969;28;657635;-69
2021/04/16 07:32:35;;;;;;;35.53;15.23;;;1.40;99.90;;;;;;4400200;28;658000;-69
2021/04/16 07:35:27;;;;;;;35.43;15.03;;;1.40;99.90;;;;;;4375619;28;658027;-69
2021/04/16 07:38:24;;;;;;;29.60;14.13;;;1.50;99.90;;;;;;4391867;28;657995;-69
2021/04/16 07:41:16;;;;;;;32.10;14.83;;;1.50;99.90;;;;;;4399667;28;657706;-70
2021/04/16 07:44:04;;;;;;;30.47;14.70;;;1.50;99.90;;;;;;4383183;28;657911;-70
2021/04/16 07:46:52;;;;;;;31.13;14.50;;;1.50;99.90;;;;;;4426344;28;657808;-69
2021/04/16 07:49:39;;;;;;;25.70;10.03;;;1.50;99.90;;;;;;4409336;28;657817;-69
2021/04/16 07:52:43;;;;;;;29.33;15.33;;;1.40;99.90;;;;;;4424076;28;657778;-70
2021/04/16 07:55:46;;;;;;;35.10;15.53;;;1.40;99.90;;;;;;4405068;28;658184;-70
2021/04/16 07:58:34;;;;;;;32.00;14.93;;;1.30;99.90;;;;;;4383457;28;657685;-70
2021/04/16 08:01:28;;;;;;;28.83;13.30;;;1.30;99.90;;;;;;4428212;28;657738;-69
2021/04/16 08:04:31;;;;;;;29.87;14.00;;;1.40;99.90;;;;;;4417709;28;658101;-69
2021/04/16 08:07:20;;;;;;;30.17;14.53;;;1.40;99.90;;;;;;4425912;28;657831;-69
2021/04/16 08:10:14;;;;;;;30.47;14.40;;;1.40;99.90;;;;;;4446369;28;657388;-69
2021/04/16 08:13:07;;;;;;;26.07;12.73;;;1.50;99.90;;;;;;4419361;28;657990;-69
2021/04/16 08:15:56;;;;;;;35.07;16.20;;;1.50;99.90;;;;;;4422213;28;658295;-69
2021/04/16 08:18:44;;;;;;;30.93;14.67;;;1.50;99.90;;;;;;4424438;28;658046;-69
2021/04/16 08:21:34;;;;;;;26.17;14.03;;;1.70;99.90;;;;;;4437741;28;658170;-69
2021/04/16 08:24:33;;;;;;;27.97;13.33;;;1.70;99.90;;;;;;4422103;28;658002;-69
2021/04/16 08:27:31;;;;;;;28.47;14.20;;;1.70;99.90;;;;;;4418915;28;658183;-69
2021/04/16 08:30:22;;;;;;;26.45;13.63;;;1.60;99.90;;;;;;4391629;28;657978;-70
2021/04/16 08:36:55;;;;;;;30.57;14.87;;;1.70;99.90;;;;;;4398506;28;658397;-70
2021/04/16 08:39:44;;;;;;;29.47;12.77;;;1.70;99.90;;;;;;4436296;28;657364;-70
2021/04/16 08:42:40;;;;;;;32.00;13.77;;;1.80;99.90;;;;;;4446963;28;657628;-70
2021/04/16 08:46:03;;;;;;;30.33;13.57;;;1.80;99.90;;;;;;4418251;28;657968;-70
2021/04/16 08:48:54;;;;;;;31.52;14.27;;;1.70;99.90;;;;;;4424730;28;657697;-71
2021/04/16 08:51:43;;;;;;;33.23;14.67;;;1.70;99.90;;;;;;4426480;28;658169;-70
2021/04/16 08:54:31;;;;;;;28.10;13.20;;;1.70;99.90;;;;;;4430151;28;658171;-71
2021/04/16 08:57:19;;;;;;;32.37;14.87;;;1.80;99.90;;;;;;4431090;28;657684;-70
2021/04/16 09:00:09;;;;;;;27.45;14.70;;;1.80;99.90;;;;;;4449349;28;657462;-70
2021/04/16 09:02:58;;;;;;;29.93;13.70;;;1.80;99.90;;;;;;4427126;28;657931;-70
2021/04/16 09:05:55;;;;;;;33.83;15.80;;;1.80;99.90;;;;;;4427251;28;657734;-70
2021/04/16 09:08:45;;;;;;;24.07;11.10;;;1.80;99.90;;;;;;4415798;28;657667;-69
2021/04/16 09:11:52;;;;;;;31.20;14.20;;;1.90;99.90;;;;;;4440948;28;657828;-70
2021/04/16 09:14:53;;;;;;;25.13;12.77;;;1.90;99.90;;;;;;4404144;28;657894;-70
2021/04/16 09:18:18;;;;;;;29.20;12.40;;;1.90;99.90;;;;;;4426620;28;657804;-70
2021/04/16 09:21:16;;;;;;;27.90;13.60;;;1.90;99.90;;;;;;4403021;28;657571;-70
2021/04/16 09:24:13;;;;;;;16.43;8.00;;;2.00;99.90;;;;;;4413508;28;657789;-70
2021/04/16 09:27:02;;;;;;;30.83;12.50;;;1.90;99.90;;;;;;4387308;28;657245;-70
2021/04/16 09:29:49;;;;;;;33.03;14.63;;;1.90;99.90;;;;;;4415224;28;658607;-70
2021/04/16 09:32:46;;;;;;;36.55;14.00;;;1.90;99.90;;;;;;4448949;28;657852;-70
2021/04/16 09:35:58;;;;;;;21.73;9.80;;;1.90;99.90;;;;;;4403795;28;657791;-71
2021/04/16 09:39:11;;;;;;;26.05;12.48;;;1.90;99.90;;;;;;4401477;28;657368;-70
2021/04/16 09:42:00;;;;;;;34.63;14.02;;;2.00;99.90;;;;;;4427635;28;657819;-70
2021/04/16 09:44:56;;;;;;;24.63;11.47;;;2.00;99.90;;;;;;4441616;28;657423;-70
2021/04/16 09:47:46;;;;;;;32.90;15.50;;;2.00;99.90;;;;;;4429203;28;658067;-70
2021/04/16 09:50:35;;;;;;;27.30;13.93;;;2.10;99.90;;;;;;4430582;28;657345;-70
2021/04/16 09:53:25;;;;;;;30.77;14.83;;;2.20;99.90;;;;;;4429520;28;657793;-70
2021/04/16 09:56:20;;;;;;;23.13;11.17;;;2.20;99.90;;;;;;4429583;28;657845;-70
2021/04/16 09:59:09;;;;;;;20.23;8.93;;;2.20;99.90;;;;;;4412480;28;658005;-69
2021/04/16 10:02:23;;;;;;;32.13;14.77;;;2.20;99.90;;;;;;4450425;28;657088;-70
2021/04/16 10:05:27;;;;;;;28.47;13.37;;;2.20;99.90;;;;;;4407235;28;657548;-69
2021/04/16 10:08:26;;;;;;;32.97;15.00;;;2.20;99.90;;;;;;4385359;28;658153;-70
2021/04/16 10:11:14;;;;;;;37.27;15.40;;;2.20;99.90;;;;;;4407980;28;657506;-70
2021/04/16 10:14:17;;;;;;;30.53;16.53;;;2.20;99.90;;;;;;4427690;28;657096;-70
2021/04/16 10:17:06;;;;;;;28.58;12.38;;;2.30;99.90;;;;;;4410247;28;658291;-70
2021/04/16 10:20:09;;;;;;;31.67;14.90;;;2.20;99.90;;;;;;4407292;28;657838;-70
2021/04/16 10:23:06;;;;;;;28.27;13.47;;;2.30;99.90;;;;;;4406796;28;657594;-70
2021/04/16 12:40:42;;;;;;;27.83;13.83;;;3.00;99.90;;;;;;4427802;28;657645;-70
2021/04/16 12:43:30;;;;;;;18.13;8.90;;;2.90;99.90;;;;;;4432301;28;658582;-70
2021/04/16 12:46:17;;;;;;;25.87;13.33;;;2.90;99.90;;;;;;4452332;28;656361;-71
2021/04/16 12:49:05;;;;;;;27.07;13.73;;;2.80;99.90;;;;;;4432251;28;658228;-70
2021/04/16 12:51:53;;;;;;;29.87;13.70;;;2.80;99.90;;;;;;4445186;28;657339;-70
2021/04/16 12:54:44;;;;;;;24.75;13.20;;;2.90;99.90;;;;;;4450142;28;658423;-70
2021/04/16 12:57:35;;;;;;;25.13;12.53;;;2.80;99.90;;;;;;4427138;28;657379;-70
2021/04/16 13:00:24;;;;;;;24.80;13.00;;;2.80;99.90;;;;;;4446481;28;657457;-70
2021/04/16 13:03:14;;;;;;;25.20;13.60;;;2.90;99.90;;;;;;4452048;28;656947;-70
2021/04/16 13:06:02;;;;;;;21.43;11.07;;;3.00;99.90;;;;;;4427141;28;658090;-70
2021/04/16 13:08:49;;;;;;;18.00;9.60;;;3.00;99.90;;;;;;4427229;28;658768;-70
2021/04/16 13:11:38;;;;;;;28.10;15.23;;;3.00;99.90;;;;;;4451650;28;656390;-71
2021/04/16 13:14:25;;;;;;;23.27;12.33;;;3.10;99.90;;;;;;4427503;28;658343;-70
2021/04/16 13:17:13;;;;;;;28.10;14.53;;;3.10;99.90;;;;;;4430820;28;658104;-70
2021/04/16 13:20:01;;;;;;;17.87;9.00;;;3.10;99.90;;;;;;4438356;28;658372;-70
2021/04/16 13:22:48;;;;;;;23.73;12.73;;;3.20;99.90;;;;;;4414599;28;656742;-70
2021/04/16 13:25:35;;;;;;;23.70;11.90;;;3.20;99.90;;;;;;4435721;28;658338;-70
2021/04/16 13:28:24;;;;;;;28.77;13.77;;;3.20;99.90;;;;;;4413190;28;658131;-70
2021/04/16 13:31:11;;;;;;;22.87;13.10;;;3.20;99.90;;;;;;4447194;28;658181;-70
2021/04/16 13:33:59;;;;;;;27.97;14.83;;;3.20;99.90;;;;;;4429228;28;657678;-70
2021/04/16 13:36:51;;;;;;;27.37;15.30;;;3.10;99.90;;;;;;4449130;28;657497;-71
2021/04/16 13:39:38;;;;;;;27.80;14.80;;;3.20;99.90;;;;;;4429737;28;658802;-70
2021/04/16 13:42:26;;;;;;;28.87;14.30;;;3.10;99.90;;;;;;4449567;28;657920;-70
2021/04/16 13:45:16;;;;;;;31.37;14.87;;;3.10;99.90;;;;;;4420635;28;657555;-70
2021/04/16 13:48:04;;;;;;;29.30;15.13;;;3.20;99.90;;;;;;4428916;28;657503;-70
2021/04/16 13:50:52;;;;;;;28.95;15.32;;;3.20;99.90;;;;;;4450033;28;657474;-70
2021/04/16 13:53:39;;;;;;;27.77;14.13;;;3.20;99.90;;;;;;4431124;28;658763;-70
2021/04/16 13:56:27;;;;;;;32.13;16.70;;;3.20;99.90;;;;;;4449547;28;657352;-70
2021/04/16 13:59:15;;;;;;;32.25;16.98;;;3.20;99.90;;;;;;4430519;28;658306;-69
2021/04/16 14:02:04;;;;;;;27.83;14.83;;;3.10;99.90;;;;;;4445380;28;658112;-70
2021/04/16 14:04:52;;;;;;;31.47;17.40;;;3.10;99.90;;;;;;4431140;28;658644;-70
2021/04/16 14:07:39;;;;;;;36.03;17.63;;;3.10;99.90;;;;;;4412642;28;658156;-70
2021/04/16 14:10:26;;;;;;;32.43;16.23;;;3.10;99.90;;;;;;4431519;28;657172;-70
2021/04/16 14:13:14;;;;;;;31.37;15.47;;;3.10;99.90;;;;;;4412534;28;657562;-70
2021/04/16 14:16:03;;;;;;;34.10;16.43;;;3.20;99.90;;;;;;4433129;28;657689;-70
2021/04/16 14:18:51;;;;;;;32.87;16.60;;;3.20;99.90;;;;;;4410623;28;658136;-70
2021/04/16 14:21:39;;;;;;;33.60;17.33;;;3.20;99.90;;;;;;4430078;28;657709;-70
2021/04/16 14:24:27;;;;;;;28.57;12.80;;;3.20;99.90;;;;;;4449108;28;657183;-70
2021/04/16 14:27:14;;;;;;;29.50;15.13;;;3.20;99.90;;;;;;4425944;28;659208;-70
2021/04/16 14:30:02;;;;;;;29.38;14.82;;;3.20;99.90;;;;;;4449009;28;657917;-70
2021/04/16 14:32:50;;;;;;;37.67;18.73;;;3.10;99.90;;;;;;4429468;28;657942;-71
2021/04/16 14:35:38;;;;;;;28.83;13.30;;;3.10;99.90;;;;;;4431663;28;658137;-70
2021/04/16 14:38:26;;;;;;;34.80;18.47;;;3.10;99.90;;;;;;4448999;28;657945;-71
2021/04/16 14:41:16;;;;;;;39.38;19.73;;;3.00;99.90;;;;;;4429312;28;657603;-70
2021/04/16 14:44:03;;;;;;;40.70;19.23;;;3.10;99.90;;;;;;4429696;28;657823;-71
2021/04/16 14:46:50;;;;;;;40.50;19.30;;;3.00;99.90;;;;;;4449268;28;658491;-71
2021/04/16 14:49:38;;;;;;;41.80;19.80;;;3.00;99.90;;;;;;4430089;28;658353;-70
2021/04/16 14:52:26;;;;;;;44.70;20.30;;;3.10;99.90;;;;;;4452890;28;657711;-70
2021/04/16 14:55:17;;;;;;;37.60;19.47;;;3.10;99.90;;;;;;4429127;28;657631;-69
2021/04/16 14:58:04;;;;;;;44.93;20.73;;;3.10;99.90;;;;;;4429669;28;657692;-70
2021/04/16 15:00:51;;;;;;;43.93;20.10;;;3.00;99.90;;;;;;4448565;28;657830;-70
2021/04/16 15:03:39;;;;;;;47.50;21.47;;;3.00;99.90;;;;;;4429148;28;657941;-70
2021/04/16 15:06:27;;;;;;;44.83;21.47;;;3.00;99.90;;;;;;4451020;28;657122;-70
2021/04/16 15:09:16;;;;;;;42.92;21.30;;;3.00;99.90;;;;;;4427944;28;659588;-69
2021/04/16 15:12:04;;;;;;;39.13;20.23;;;2.90;99.90;;;;;;4428472;28;657420;-69
2021/04/16 15:14:52;;;;;;;34.07;17.63;;;3.00;99.90;;;;;;4447026;28;657720;-69
2021/04/16 15:17:39;;;;;;;44.23;21.83;;;2.90;99.90;;;;;;4428547;28;658777;-69
2021/04/16 15:20:27;;;;;;;41.03;20.53;;;3.00;99.90;;;;;;4447655;28;657518;-68
2021/04/16 15:23:16;;;;;;;34.23;17.37;;;3.00;99.90;;;;;;4429308;28;658261;-69
2021/04/16 15:26:06;;;;;;;42.10;20.00;;;2.90;99.90;;;;;;4428986;28;657377;-69
2021/04/16 15:28:57;;;;;;;35.70;18.00;;;2.90;99.90;;;;;;4428373;28;657962;-70
2021/04/16 15:31:44;;;;;;;41.57;21.23;;;2.90;99.90;;;;;;4407252;28;658693;-71
2021/04/16 15:46:44;;;;;;;38.63;19.73;;;2.80;99.90;;;;;;4388639;28;658484;-70
2021/04/16 15:49:31;;;;;;;44.20;20.87;;;2.80;99.90;;;;;;4407684;28;657919;-70
2021/04/16 15:52:18;;;;;;;44.80;19.27;;;2.80;99.90;;;;;;4411932;28;657644;-71
2021/04/16 15:55:07;;;;;;;45.93;22.80;;;2.80;99.90;;;;;;4434030;28;658636;-71
2021/04/16 15:57:54;;;;;;;50.60;23.73;;;2.70;99.90;;;;;;4415210;28;658001;-70
2021/04/16 16:00:45;;;;;;;48.93;24.03;;;2.80;99.90;;;;;;4433771;28;657920;-71
2021/04/16 16:03:33;;;;;;;41.20;22.27;;;2.80;99.90;;;;;;4399978;28;658138;-71
2021/04/16 16:06:20;;;;;;;40.90;20.10;;;2.80;99.90;;;;;;4437204;28;658248;-70
2021/04/16 16:09:08;;;;;;;37.70;18.60;;;2.80;99.90;;;;;;4414753;28;658071;-70
2021/04/16 16:11:56;;;;;;;43.10;22.10;;;2.80;99.90;;;;;;4433809;28;658006;-69
2021/04/16 16:14:46;;;;;;;42.80;21.27;;;2.80;99.90;;;;;;4414334;28;657562;-71
2021/04/16 16:17:35;;;;;;;48.33;22.40;;;2.80;99.90;;;;;;4414570;28;657988;-70
2021/04/16 16:20:24;;;;;;;41.10;21.73;;;2.70;99.90;;;;;;4428029;28;657645;-70
2021/04/16 16:23:12;;;;;;;37.47;18.73;;;2.80;99.90;;;;;;4450668;28;658165;-70
2021/04/16 16:26:00;;;;;;;37.57;19.63;;;2.80;99.90;;;;;;4427988;28;658776;-71
2021/04/16 16:28:47;;;;;;;45.77;22.50;;;2.80;99.90;;;;;;4449118;28;657588;-70
2021/04/16 16:31:35;;;;;;;42.93;20.73;;;2.70;99.90;;;;;;4437041;28;657837;-71
2021/04/16 16:34:24;;;;;;;42.37;22.03;;;2.70;99.90;;;;;;4430070;28;657786;-71
2021/04/16 16:37:15;;;;;;;39.43;21.20;;;2.70;99.90;;;;;;4431335;28;657491;-71
2021/04/16 16:40:03;;;;;;;40.03;20.53;;;2.70;99.90;;;;;;4401650;28;657768;-71
2021/04/16 16:42:51;;;;;;;36.23;19.73;;;2.70;99.90;;;;;;4435649;28;658403;-71
2021/04/16 16:45:39;;;;;;;39.70;20.17;;;2.60;99.90;;;;;;4413961;28;658025;-71
2021/04/16 16:48:26;;;;;;;39.53;20.67;;;2.60;99.90;;;;;;4432928;28;657940;-72
2021/04/16 16:51:15;;;;;;;32.43;16.93;;;2.60;99.90;;;;;;4414136;28;657530;-72
2021/04/16 16:54:04;;;;;;;39.35;19.10;;;2.60;99.90;;;;;;4418457;28;657381;-71
2021/04/16 16:56:51;;;;;;;39.00;21.13;;;2.60;99.90;;;;;;4432753;28;658533;-72
2021/04/16 16:59:40;;;;;;;41.37;20.70;;;2.60;99.90;;;;;;4411350;28;657385;-73
2021/04/16 17:02:27;;;;;;;34.23;15.83;;;2.60;99.90;;;;;;4427880;28;657888;-71
2021/04/16 17:05:15;;;;;;;36.93;19.00;;;2.60;99.90;;;;;;4432506;28;658571;-72